Latest Coastal Weather Observations for Hervey Bay

IDQ60701

Issued at 5:01 pm EST Thursday 23 February 2017 (issued every 10 minutes, with the page automatically refreshed every 10 minutes)

About coastal observations | Map of coastal stations | Coastal observations for QLD | Marine services | Other Formats
Station Details ID: 040405 Name: HERVEY BAY AIRPORT Lat: -25.32 Lon: 152.88 Height: 12.98 m
Data from the previous 72 hours. | See also: Recent months at Hervey Bay
Date/Time
EST
Temp
°C
Wind Pressure Rain since
9am
mm
Weather Cloud Vis
km
Sea
Height
m
Swell
Dir  Spd
kts
Gust
kts
hPa Trend Height
m
Period
s
Dir
23/04:30pm 28.4 SE 12 20 1015.4 - 0.0 - - 10 - - - -
23/04:00pm 29.2 SE 13 20 1015.4 - 0.0 - - 10 - - - -
23/03:30pm 29.7 SE 15 21 1015.3 - 0.0 - - 10 - - - -
23/03:00pm 29.4 SE 13 20 1015.4 - 0.0 - - 10 - - - -
23/02:30pm 29.6 SE 13 18 1015.6 - 0.0 - - 10 - - - -
23/02:00pm 30.3 SE 14 21 1015.8 - 0.0 - - 10 - - - -
23/01:30pm 30.4 SE 14 21 1016.0 - 0.0 - - 10 - - - -
23/01:00pm 29.7 SE 16 22 1016.3 - 0.0 - - 10 - - - -
23/12:30pm 30.4 SE 12 19 1016.4 - 0.0 - Partly cloudy 10 - - - -
23/12:00pm 30.5 SSE 12 21 1016.8 - 0.0 - Mostly clear 10 - - - -
23/11:30am 30.7 SE 12 20 1017.0 - 0.0 - - 10 - - - -
23/11:00am 29.9 SSE 10 17 1017.2 - 0.0 - Partly cloudy 10 - - - -
23/10:30am 29.3 SE 12 18 1017.3 - 0.0 - - 10 - - - -
23/10:00am 29.8 SE 12 19 1017.4 - 0.0 - - 10 - - - -
23/09:30am 28.8 SE 13 17 1017.5 - 0.0 - - 10 - - - -
23/09:00am 27.7 SE 13 19 1017.6 - 0.0 - - 10 - - - -
23/08:30am 28.1 SE 11 17 1017.3 - 0.0 - - 10 - - - -
23/08:00am 27.2 SE 11 18 1017.1 - 0.0 - Partly cloudy 10 - - - -
23/07:30am 26.2 S 6 10 1017.0 - 0.0 - Partly cloudy 10 - - - -
23/07:00am 24.1 SW 6 8 1016.9 - 0.0 - - 10 - - - -
23/06:30am 22.5 SW 6 8 1016.6 - 0.0 - - 10 - - - -
23/06:00am 22.1 SW 6 9 1016.5 - 0.0 - Mostly clear 10 - - - -
23/05:30am 22.2 SSW 5 6 1016.2 - 0.0 - - 10 - - - -
23/05:00am 22.4 SSW 7 10 1015.9 - 0.0 - Partly cloudy 10 - - - -
23/04:30am 22.7 SW 7 9 1015.9 - 0.0 - Partly cloudy 10 - - - -
23/04:00am 23.5 S 5 8 1015.8 - 0.0 - - 10 - - - -
23/03:30am 24.3 SSE 6 10 1015.9 - 0.0 - - 10 - - - -
23/03:00am 24.5 SSE 7 10 1015.8 - 0.0 - Mostly cloudy 10 - - - -
23/02:30am 24.6 SSE 7 12 1016.0 - 0.0 - - 10 - - - -
23/02:00am 24.7 SSE 8 11 1016.2 - 0.0 - - 10 - - - -
23/01:30am 24.4 SSE 7 12 1016.5 - 0.0 - - 10 - - - -
23/01:00am 25.0 SE 8 13 1016.7 - 0.0 - - 10 - - - -
23/12:30am 24.8 SE 9 15 1016.9 - 0.0 - - 10 - - - -
23/12:00am 25.2 SSE 9 17 1017.1 - 0.0 - Cloudy 10 - - - -
 
Date/Time
EST
Temp
°C
Wind Pressure Rain since
9am
mm
Weather Cloud Vis
km
Sea
Height
m
Swell
Dir  Spd
kts
Gust
kts
hPa Trend Height
m
Period
s
Dir
22/11:30pm 25.3 SSE 9 15 1017.2 - 0.0 - - 10 - - - -
22/11:00pm 25.3 SE 10 15 1017.4 - 0.0 - Partly cloudy 10 - - - -
22/10:30pm 25.3 SE 9 16 1017.6 - 0.0 - Partly cloudy 10 - - - -
22/10:00pm 25.4 SE 10 16 1017.6 - 0.0 - Partly cloudy 10 - - - -
22/09:30pm 25.5 SE 11 19 1017.5 - 0.0 - Partly cloudy 10 - - - -
22/09:00pm 25.5 SE 9 13 1017.5 - 0.0 - Cloudy 10 - - - -
22/08:30pm 25.6 SE 10 17 1017.3 - 0.0 - - 10 - - - -
22/08:00pm 25.6 SE 12 21 1017.0 - 0.0 - - 10 - - - -
22/07:30pm 25.5 SE 10 17 1016.9 - 0.0 - - 10 - - - -
22/07:00pm 25.6 SE 11 20 1016.7 - 0.0 - - 10 - - - -
22/06:30pm 25.8 SE 12 19 1016.6 - 0.0 - Partly cloudy 10 - - - -
22/06:00pm 26.2 SSE 11 16 1016.4 - 0.0 - Mostly clear 10 - - - -
22/05:30pm 26.7 SE 13 18 1016.1 - 0.0 - Partly cloudy 10 - - - -
22/05:00pm 26.7 SE 13 19 1015.8 - 0.0 - Partly cloudy 10 - - - -
22/04:32pm 27.2 SE 15 25 1015.5 - 0.0 - Partly cloudy 10 - - - -
22/04:30pm 27.5 SE 14 21 1015.5 - 0.0 - Partly cloudy 10 - - - -
22/04:00pm 27.7 SE 13 20 1015.4 - 0.0 - Partly cloudy 10 - - - -
22/03:30pm 28.0 SE 14 24 1015.4 - 0.0 - - 10 - - - -
22/03:00pm 29.6 SE 14 24 1015.5 - 0.0 - - 10 - - - -
22/02:30pm 29.5 SE 14 23 1015.5 - 0.0 - - 10 - - - -
22/02:00pm 29.7 SE 15 22 1015.7 - 0.0 - - 10 - - - -
22/01:30pm 30.7 SE 14 21 1015.8 - 0.0 - - 10 - - - -
22/01:00pm 30.3 SE 15 23 1016.1 - 0.0 - - 10 - - - -
22/12:30pm 30.4 SE 14 24 1016.4 - 0.0 - - 10 - - - -
22/12:00pm 30.1 SE 15 25 1016.8 - 0.0 - Mostly clear 10 - - - -
22/11:30am 29.6 SE 14 22 1017.0 - 0.0 - Partly cloudy 10 - - - -
22/11:00am 30.7 SE 13 21 1017.0 - 0.0 - - 10 - - - -
22/10:30am 30.2 SE 13 20 1017.4 - 0.0 - - 10 - - - -
22/10:00am 29.7 SE 14 24 1017.5 - 0.0 - - 10 - - - -
22/09:30am 30.5 SE 13 21 1017.7 - 0.0 - Partly cloudy 10 - - - -
22/09:00am 28.2 SE 12 21 1017.6 - 0.0 - Mostly cloudy 10 - - - -
22/08:30am 28.3 SE 11 19 1017.5 - 0.0 - Partly cloudy 10 - - - -
22/08:00am 27.5 SE 12 18 1017.2 - 0.0 - Partly cloudy 10 - - - -
22/07:30am 27.3 SE 12 21 1017.1 - 0.0 - - 10 - - - -
22/07:00am 26.3 SSE 9 15 1017.2 - 0.0 - Partly cloudy 10 - - - -
22/06:30am 25.1 SE 7 14 1016.7 - 0.0 - - 10 - - - -
22/06:00am 25.3 SE 9 14 1016.3 - 0.0 - - 10 - - - -
22/05:30am 25.3 SE 9 14 1016.0 - 0.0 - - 10 - - - -
22/05:00am 25.0 SSE 8 11 1016.0 - 0.0 - - 10 - - - -
22/04:30am 25.2 SSE 10 15 1015.7 - 0.0 - Partly cloudy 10 - - - -
22/04:00am 25.5 SE 9 14 1015.4 - 0.0 - Cloudy 10 - - - -
22/03:30am 25.3 SE 7 12 1015.4 - 0.0 - Partly cloudy 10 - - - -
22/03:00am 25.4 SSE 9 14 1015.5 - 0.0 - Cloudy 10 - - - -
22/02:30am 25.3 SSE 9 13 1015.3 - 0.0 - Cloudy 10 - - - -
22/02:00am 25.3 SSE 9 15 1015.5 - 0.0 - Partly cloudy 10 - - - -
22/01:30am 25.3 SSE 8 12 1015.7 - 0.0 - Partly cloudy 10 - - - -
22/01:00am 25.5 SSE 7 11 1015.9 - 0.0 - Partly cloudy 10 - - - -
22/12:30am 25.5 SE 9 15 1015.9 - 0.0 - Partly cloudy 10 - - - -
22/12:00am 25.7 SE 10 15 1016.0 - 0.0 - Partly cloudy 10 - - - -
 
Date/Time
EST
Temp
°C
Wind Pressure Rain since
9am
mm
Weather Cloud Vis
km
Sea
Height
m
Swell
Dir  Spd
kts
Gust
kts
hPa Trend Height
m
Period
s
Dir
21/11:30pm 25.9 SE 9 13 1016.2 - 0.0 - Partly cloudy 10 - - - -
21/11:00pm 26.0 SE 9 16 1016.2 - 0.0 - Partly cloudy 10 - - - -
21/10:30pm 26.2 SE 12 18 1016.2 - 0.0 - Partly cloudy 10 - - - -
21/10:00pm 26.2 SE 11 16 1016.4 - 0.0 - Partly cloudy 10 - - - -
21/09:30pm 26.1 SE 9 16 1016.3 - 0.0 - - 10 - - - -
21/09:00pm 26.3 SE 11 17 1016.4 - 0.0 - Mostly clear 10 - - - -
21/08:30pm 26.4 SE 10 18 1016.1 - 0.0 - Partly cloudy 10 - - - -
21/08:00pm 26.4 SE 10 17 1016.0 - 0.0 - Partly cloudy 10 - - - -
21/07:30pm 26.5 SE 10 15 1015.8 - 0.0 - Partly cloudy 10 - - - -
21/07:00pm 26.7 SE 10 19 1015.4 - 0.0 - Partly cloudy 10 - - - -
21/06:30pm 26.9 SE 12 20 1015.1 - 0.0 - Partly cloudy 10 - - - -
21/06:00pm 27.3 SE 12 19 1014.9 - 0.0 - Mostly clear 10 - - - -
21/05:30pm 28.3 SE 12 18 1014.5 - 0.0 - - 10 - - - -
21/05:00pm 28.1 SE 15 23 1014.4 - 0.0 - - 10 - - - -
21/04:30pm 28.9 ESE 14 22 1014.0 - 0.0 - Partly cloudy 10 - - - -
21/04:00pm 29.8 ESE 13 21 1013.9 - 0.0 - - 10 - - - -
21/03:30pm 30.1 SE 14 21 1013.9 - 0.0 - - 10 - - - -
21/03:00pm 30.9 SE 14 22 1013.8 - 0.0 - - 10 - - - -
21/02:30pm 31.1 ESE 16 23 1013.8 - 0.0 - - 10 - - - -
21/02:00pm 31.6 ESE 15 22 1014.0 - 0.0 - - 10 - - - -
21/01:30pm 31.8 ESE 15 23 1014.0 - 0.0 - - 10 - - - -
21/01:00pm 32.0 ESE 16 21 1014.1 - 0.0 - - 10 - - - -
21/12:30pm 32.2 SE 13 19 1014.5 - 0.0 - - 10 - - - -
21/12:00pm 31.2 SE 10 18 1015.0 - 0.0 - - 10 - - - -
21/11:30am 31.5 SE 13 17 1015.2 - 0.0 - - 10 - - - -
21/11:00am 30.9 SE 12 16 1015.4 - 0.0 - - 10 - - - -
21/10:30am 31.4 ESE 12 20 1015.4 - 0.0 - - 10 - - - -
21/10:00am 30.7 ESE 11 18 1015.6 - 0.0 - - 10 - - - -
21/09:30am 30.8 ESE 11 15 1015.5 - 0.0 - Partly cloudy 10 - - - -
21/09:00am 30.2 SE 8 13 1015.6 - 0.0 - Cloudy 10 - - - -
21/08:30am 29.0 SE 10 15 1015.5 - 0.0 - Partly cloudy 10 - - - -
21/08:00am 26.8 SSE 8 11 1015.3 - 0.0 - - 10 - - - -
21/07:30am 25.9 S 5 8 1015.0 - 0.0 - - 10 - - - -
21/07:00am 24.2 SSW 4 5 1014.8 - 0.0 - - 10 - - - -
21/06:30am 23.8 SSW 4 5 1014.3 - 0.0 - Partly cloudy 10 - - - -
21/06:00am 23.6 SSW 5 7 1014.0 - 0.0 - Partly cloudy 10 - - - -
21/05:30am 24.1 SW 4 6 1013.7 - 0.0 - Partly cloudy 10 - - - -
21/05:16am 24.2 SW 5 7 1013.4 - 0.0 - Partly cloudy 10 - - - -
21/05:00am 24.1 SSW 5 7 1013.1 - 0.0 - Partly cloudy 10 - - - -
21/04:35am 23.7 SSW 5 8 1012.7 - 0.0 - Partly cloudy 10 - - - -
21/04:30am 23.6 SSW 6 8 1012.6 - 0.0 - Partly cloudy 10 - - - -
21/04:00am 23.0 SSW 6 7 1012.5 - 0.0 - Partly cloudy 10 - - - -
21/03:30am 23.0 SSW 6 8 1012.3 - 0.0 - Partly cloudy 10 - - - -
21/03:00am 22.8 SSW 5 7 1012.1 - 0.0 - - 10 - - - -
21/02:30am 23.0 SW 5 6 1012.0 - 0.0 - - 10 - - - -
21/02:00am 22.9 SSW 5 7 1012.2 - 0.0 - - 10 - - - -
21/01:30am 23.6 SSW 4 6 1012.6 - 0.0 - Partly cloudy 10 - - - -
21/01:00am 23.7 SSW 5 7 1012.9 - 0.0 - Partly cloudy 10 - - - -
21/12:30am 23.9 SW 6 7 1013.1 - 0.0 - Partly cloudy 10 - - - -
21/12:00am 24.4 SSW 5 6 1013.2 - 0.0 - Cloudy 10 - - - -
 
Date/Time
EST
Temp
°C
Wind Pressure Rain since
9am
mm
Weather Cloud Vis
km
Sea
Height
m
Swell
Dir  Spd
kts
Gust
kts
hPa Trend Height
m
Period
s
Dir
20/11:30pm 24.8 SSW 4 5 1013.3 - 0.0 - Partly cloudy 10 - - - -
20/11:00pm 25.1 SSW 3 4 1013.3 - 0.0 - Partly cloudy 10 - - - -
20/10:30pm 25.2 SSE 4 5 1013.1 - 0.0 - Partly cloudy 10 - - - -
20/10:00pm 25.7 S 4 5 1013.2 - 0.0 - Partly cloudy 10 - - - -
20/09:30pm 26.2 SE 4 6 1013.1 - 0.0 - Cloudy 10 - - - -
20/09:00pm 26.3 SE 6 9 1012.8 - 0.0 - Mostly cloudy 10 - - - -
20/08:30pm 26.0 SE 5 7 1012.4 - 0.0 - - 10 - - - -
20/08:00pm 26.1 ESE 6 8 1011.9 - 0.0 - - 10 - - - -
20/07:30pm 26.4 ESE 9 11 1011.5 - 0.0 - Partly cloudy 10 - - - -
20/07:00pm 26.6 ESE 9 13 1011.0 - 0.0 - - 10 - - - -
20/06:30pm 27.0 ESE 9 12 1010.5 - 0.0 - - 10 - - - -
20/06:00pm 27.8 ESE 11 13 1010.0 - 0.0 - - 10 - - - -
20/05:30pm 28.7 ESE 11 14 1009.4 - 0.0 - Partly cloudy 10 - - - -

Other Formats:

Comma delimited format used in spreadsheet applications
http://www.bom.gov.au/fwo/IDQ60701/IDQ60701.95565.axf

JavaScript Object Notation format (JSON) in row-major order
http://www.bom.gov.au/fwo/IDQ60701/IDQ60701.95565.json